Terminal Aerodrome Forecast
Issued by NWS Wilmington, OH

Current Version | Previous Version | Text Only | Print | Product List | Glossary Off
Versions: 1 2 3 4 5 6 7 8 9 10 11 12 13 14 15 16 17 18 19 20 21 22 23 24 25 26 27

161
FTUS41 KILN 150857 AAC
TAFCMH
TAF AMD
KCMH 150857Z 1509/1606 36007KT 4SM BR OVC007
     FM151500 06005KT P6SM BKN040
     FM160000 05003KT P6SM SCT012 OVC050=

USA.gov is the U.S. government's official web portal to all federal, state and local government web resources and services.